sensor_id;sensor_type;location;lat;lon;timestamp;P1;durP1;ratioP1;P2;durP2;ratioP2
8622;SDS011;4349;47.552;8.904;2023-08-30T00:00:11;5.30;;;4.90;;
8622;SDS011;4349;47.552;8.904;2023-08-30T00:02:40;5.60;;;5.30;;
8622;SDS011;4349;47.552;8.904;2023-08-30T00:05:08;5.60;;;5.20;;
8622;SDS011;4349;47.552;8.904;2023-08-30T00:07:36;5.70;;;5.17;;
8622;SDS011;4349;47.552;8.904;2023-08-30T00:10:03;5.30;;;4.90;;
8622;SDS011;4349;47.552;8.904;2023-08-30T00:12:31;5.87;;;5.13;;
8622;SDS011;4349;47.552;8.904;2023-08-30T00:15:00;5.27;;;4.87;;
8622;SDS011;4349;47.552;8.904;2023-08-30T00:17:27;5.50;;;5.00;;
8622;SDS011;4349;47.552;8.904;2023-08-30T00:19:55;5.30;;;5.00;;
8622;SDS011;4349;47.552;8.904;2023-08-30T00:22:22;5.87;;;5.57;;
8622;SDS011;4349;47.552;8.904;2023-08-30T00:24:51;4.87;;;4.57;;
8622;SDS011;4349;47.552;8.904;2023-08-30T00:27:18;5.20;;;4.90;;
8622;SDS011;4349;47.552;8.904;2023-08-30T00:29:46;4.57;;;4.37;;
8622;SDS011;4349;47.552;8.904;2023-08-30T00:32:15;4.80;;;4.40;;
8622;SDS011;4349;47.552;8.904;2023-08-30T00:34:43;5.50;;;5.10;;
8622;SDS011;4349;47.552;8.904;2023-08-30T00:37:10;4.57;;;4.30;;
8622;SDS011;4349;47.552;8.904;2023-08-30T00:39:38;5.00;;;4.77;;
8622;SDS011;4349;47.552;8.904;2023-08-30T00:42:05;5.30;;;5.00;;
8622;SDS011;4349;47.552;8.904;2023-08-30T00:44:34;5.00;;;4.80;;
8622;SDS011;4349;47.552;8.904;2023-08-30T00:47:02;5.40;;;5.10;;
8622;SDS011;4349;47.552;8.904;2023-08-30T00:49:31;5.80;;;5.50;;
8622;SDS011;4349;47.552;8.904;2023-08-30T00:51:58;5.60;;;5.30;;
8622;SDS011;4349;47.552;8.904;2023-08-30T00:54:27;5.67;;;5.37;;
8622;SDS011;4349;47.552;8.904;2023-08-30T00:56:54;5.40;;;5.10;;
8622;SDS011;4349;47.552;8.904;2023-08-30T00:59:22;4.97;;;4.63;;
8622;SDS011;4349;47.552;8.904;2023-08-30T01:01:50;5.43;;;5.03;;
8622;SDS011;4349;47.552;8.904;2023-08-30T01:04:19;4.40;;;4.20;;
8622;SDS011;4349;47.552;8.904;2023-08-30T01:06:48;5.03;;;4.77;;
8622;SDS011;4349;47.552;8.904;2023-08-30T01:09:16;4.93;;;4.63;;
8622;SDS011;4349;47.552;8.904;2023-08-30T01:11:46;5.10;;;4.87;;
8622;SDS011;4349;47.552;8.904;2023-08-30T01:14:16;5.17;;;4.87;;
8622;SDS011;4349;47.552;8.904;2023-08-30T01:16:46;4.77;;;4.57;;
8622;SDS011;4349;47.552;8.904;2023-08-30T01:19:23;5.17;;;4.83;;
8622;SDS011;4349;47.552;8.904;2023-08-30T01:21:56;4.23;;;4.03;;
8622;SDS011;4349;47.552;8.904;2023-08-30T01:24:26;5.00;;;4.70;;
8622;SDS011;4349;47.552;8.904;2023-08-30T01:27:07;4.83;;;4.63;;
8622;SDS011;4349;47.552;8.904;2023-08-30T01:29:35;4.73;;;4.53;;
8622;SDS011;4349;47.552;8.904;2023-08-30T01:32:04;4.63;;;4.43;;
8622;SDS011;4349;47.552;8.904;2023-08-30T01:34:32;4.90;;;4.60;;
8622;SDS011;4349;47.552;8.904;2023-08-30T01:37:01;4.80;;;4.50;;
8622;SDS011;4349;47.552;8.904;2023-08-30T01:39:29;4.90;;;4.70;;
8622;SDS011;4349;47.552;8.904;2023-08-30T01:41:57;5.07;;;4.77;;
8622;SDS011;4349;47.552;8.904;2023-08-30T01:44:27;5.10;;;4.73;;
8622;SDS011;4349;47.552;8.904;2023-08-30T01:46:55;4.60;;;4.40;;
8622;SDS011;4349;47.552;8.904;2023-08-30T01:49:24;4.83;;;4.63;;
8622;SDS011;4349;47.552;8.904;2023-08-30T01:51:52;4.83;;;4.50;;
8622;SDS011;4349;47.552;8.904;2023-08-30T01:54:19;4.97;;;4.57;;
8622;SDS011;4349;47.552;8.904;2023-08-30T01:56:47;4.50;;;4.30;;
8622;SDS011;4349;47.552;8.904;2023-08-30T01:59:15;4.57;;;4.37;;
8622;SDS011;4349;47.552;8.904;2023-08-30T02:01:44;4.33;;;4.13;;
8622;SDS011;4349;47.552;8.904;2023-08-30T02:04:11;4.97;;;3.90;;
8622;SDS011;4349;47.552;8.904;2023-08-30T02:06:39;4.40;;;4.20;;
8622;SDS011;4349;47.552;8.904;2023-08-30T02:09:09;4.50;;;4.20;;
8622;SDS011;4349;47.552;8.904;2023-08-30T02:11:39;4.30;;;4.00;;
8622;SDS011;4349;47.552;8.904;2023-08-30T02:14:10;3.60;;;3.40;;
8622;SDS011;4349;47.552;8.904;2023-08-30T02:16:37;3.57;;;3.47;;
8622;SDS011;4349;47.552;8.904;2023-08-30T02:19:07;3.80;;;3.60;;
8622;SDS011;4349;47.552;8.904;2023-08-30T02:21:35;3.47;;;3.37;;
8622;SDS011;4349;47.552;8.904;2023-08-30T02:24:03;3.70;;;3.50;;
8622;SDS011;4349;47.552;8.904;2023-08-30T02:26:31;3.30;;;3.20;;
8622;SDS011;4349;47.552;8.904;2023-08-30T02:28:58;3.50;;;3.40;;
8622;SDS011;4349;47.552;8.904;2023-08-30T02:31:26;3.47;;;3.30;;
8622;SDS011;4349;47.552;8.904;2023-08-30T02:33:55;3.20;;;3.10;;
8622;SDS011;4349;47.552;8.904;2023-08-30T02:36:23;3.43;;;3.23;;
8622;SDS011;4349;47.552;8.904;2023-08-30T02:38:51;3.30;;;3.20;;
8622;SDS011;4349;47.552;8.904;2023-08-30T02:41:18;3.47;;;3.33;;
8622;SDS011;4349;47.552;8.904;2023-08-30T02:43:47;3.37;;;3.17;;
8622;SDS011;4349;47.552;8.904;2023-08-30T02:46:14;3.73;;;3.57;;
8622;SDS011;4349;47.552;8.904;2023-08-30T02:48:44;3.43;;;3.30;;
8622;SDS011;4349;47.552;8.904;2023-08-30T02:51:11;4.43;;;4.20;;
8622;SDS011;4349;47.552;8.904;2023-08-30T02:53:40;6.90;;;6.40;;
8622;SDS011;4349;47.552;8.904;2023-08-30T02:56:08;7.07;;;6.57;;
8622;SDS011;4349;47.552;8.904;2023-08-30T02:58:37;11.00;;;9.97;;
8622;SDS011;4349;47.552;8.904;2023-08-30T03:01:05;18.00;;;16.20;;
8622;SDS011;4349;47.552;8.904;2023-08-30T03:03:33;20.67;;;17.60;;
8622;SDS011;4349;47.552;8.904;2023-08-30T03:06:01;19.57;;;17.57;;
8622;SDS011;4349;47.552;8.904;2023-08-30T03:08:28;18.43;;;16.53;;
8622;SDS011;4349;47.552;8.904;2023-08-30T03:11:08;18.43;;;16.43;;
8622;SDS011;4349;47.552;8.904;2023-08-30T03:13:37;18.27;;;16.40;;
8622;SDS011;4349;47.552;8.904;2023-08-30T03:16:11;16.93;;;14.40;;
8622;SDS011;4349;47.552;8.904;2023-08-30T03:18:39;16.20;;;14.50;;
8622;SDS011;4349;47.552;8.904;2023-08-30T03:21:07;14.17;;;12.87;;
8622;SDS011;4349;47.552;8.904;2023-08-30T03:23:34;12.33;;;11.23;;
8622;SDS011;4349;47.552;8.904;2023-08-30T03:26:08;12.00;;;10.90;;
8622;SDS011;4349;47.552;8.904;2023-08-30T03:28:36;11.90;;;10.80;;
8622;SDS011;4349;47.552;8.904;2023-08-30T03:31:10;11.40;;;10.30;;
8622;SDS011;4349;47.552;8.904;2023-08-30T03:33:39;11.77;;;10.63;;
8622;SDS011;4349;47.552;8.904;2023-08-30T03:36:11;11.67;;;10.60;;
8622;SDS011;4349;47.552;8.904;2023-08-30T03:38:39;13.70;;;12.40;;
8622;SDS011;4349;47.552;8.904;2023-08-30T03:41:06;11.03;;;10.03;;
8622;SDS011;4349;47.552;8.904;2023-08-30T03:43:35;8.83;;;8.13;;
8622;SDS011;4349;47.552;8.904;2023-08-30T03:46:03;8.23;;;7.53;;
8622;SDS011;4349;47.552;8.904;2023-08-30T03:48:31;7.63;;;7.07;;
8622;SDS011;4349;47.552;8.904;2023-08-30T03:50:58;6.67;;;6.17;;
8622;SDS011;4349;47.552;8.904;2023-08-30T03:53:26;5.73;;;5.33;;
8622;SDS011;4349;47.552;8.904;2023-08-30T03:55:55;6.10;;;5.50;;
8622;SDS011;4349;47.552;8.904;2023-08-30T03:58:23;6.93;;;6.33;;
8622;SDS011;4349;47.552;8.904;2023-08-30T04:00:52;6.70;;;6.20;;
8622;SDS011;4349;47.552;8.904;2023-08-30T04:03:19;6.80;;;6.30;;
8622;SDS011;4349;47.552;8.904;2023-08-30T04:05:47;6.37;;;5.87;;
8622;SDS011;4349;47.552;8.904;2023-08-30T04:08:14;6.53;;;5.93;;
8622;SDS011;4349;47.552;8.904;2023-08-30T04:10:41;5.80;;;5.50;;
8622;SDS011;4349;47.552;8.904;2023-08-30T04:13:10;6.13;;;5.77;;
8622;SDS011;4349;47.552;8.904;2023-08-30T04:15:38;5.80;;;5.40;;
8622;SDS011;4349;47.552;8.904;2023-08-30T04:18:09;5.20;;;4.90;;
8622;SDS011;4349;47.552;8.904;2023-08-30T04:20:42;5.80;;;5.40;;
8622;SDS011;4349;47.552;8.904;2023-08-30T04:23:10;5.70;;;5.40;;
8622;SDS011;4349;47.552;8.904;2023-08-30T04:25:38;5.60;;;5.30;;
8622;SDS011;4349;47.552;8.904;2023-08-30T04:28:05;4.80;;;4.60;;
8622;SDS011;4349;47.552;8.904;2023-08-30T04:30:35;4.57;;;4.37;;
8622;SDS011;4349;47.552;8.904;2023-08-30T04:33:03;4.53;;;4.33;;
8622;SDS011;4349;47.552;8.904;2023-08-30T04:35:31;4.50;;;4.30;;
8622;SDS011;4349;47.552;8.904;2023-08-30T04:37:59;4.10;;;3.80;;
8622;SDS011;4349;47.552;8.904;2023-08-30T04:40:27;4.23;;;3.43;;
8622;SDS011;4349;47.552;8.904;2023-08-30T04:42:55;3.90;;;3.70;;
8622;SDS011;4349;47.552;8.904;2023-08-30T04:45:23;4.13;;;3.80;;
8622;SDS011;4349;47.552;8.904;2023-08-30T04:47:50;4.07;;;3.87;;
8622;SDS011;4349;47.552;8.904;2023-08-30T04:50:19;3.87;;;3.70;;
8622;SDS011;4349;47.552;8.904;2023-08-30T04:52:48;4.00;;;3.70;;
8622;SDS011;4349;47.552;8.904;2023-08-30T04:55:16;3.73;;;3.50;;
8622;SDS011;4349;47.552;8.904;2023-08-30T04:57:44;3.67;;;3.57;;
8622;SDS011;4349;47.552;8.904;2023-08-30T05:00:15;4.87;;;4.00;;
8622;SDS011;4349;47.552;8.904;2023-08-30T05:02:43;3.70;;;3.60;;
8622;SDS011;4349;47.552;8.904;2023-08-30T05:05:14;3.70;;;3.60;;
8622;SDS011;4349;47.552;8.904;2023-08-30T05:07:42;3.87;;;3.67;;
8622;SDS011;4349;47.552;8.904;2023-08-30T05:10:11;3.73;;;3.63;;
8622;SDS011;4349;47.552;8.904;2023-08-30T05:12:38;4.10;;;3.90;;
8622;SDS011;4349;47.552;8.904;2023-08-30T05:15:07;4.23;;;3.93;;
8622;SDS011;4349;47.552;8.904;2023-08-30T05:17:34;5.20;;;4.90;;
8622;SDS011;4349;47.552;8.904;2023-08-30T05:20:03;5.53;;;5.10;;
8622;SDS011;4349;47.552;8.904;2023-08-30T05:22:32;7.03;;;5.70;;
8622;SDS011;4349;47.552;8.904;2023-08-30T05:24:59;7.33;;;6.63;;
8622;SDS011;4349;47.552;8.904;2023-08-30T05:27:29;7.53;;;6.93;;
8622;SDS011;4349;47.552;8.904;2023-08-30T05:29:57;7.90;;;7.10;;
8622;SDS011;4349;47.552;8.904;2023-08-30T05:32:24;7.90;;;7.20;;
8622;SDS011;4349;47.552;8.904;2023-08-30T05:35:13;7.77;;;7.07;;
8622;SDS011;4349;47.552;8.904;2023-08-30T05:37:54;7.07;;;6.43;;
8622;SDS011;4349;47.552;8.904;2023-08-30T05:40:37;7.20;;;6.70;;
8622;SDS011;4349;47.552;8.904;2023-08-30T05:43:10;6.63;;;6.13;;
8622;SDS011;4349;47.552;8.904;2023-08-30T05:45:37;7.30;;;6.80;;
8622;SDS011;4349;47.552;8.904;2023-08-30T05:48:05;6.67;;;6.17;;
8622;SDS011;4349;47.552;8.904;2023-08-30T05:50:33;5.90;;;5.50;;
8622;SDS011;4349;47.552;8.904;2023-08-30T05:53:02;5.33;;;4.83;;
8622;SDS011;4349;47.552;8.904;2023-08-30T05:55:30;4.30;;;4.10;;
8622;SDS011;4349;47.552;8.904;2023-08-30T05:57:57;4.07;;;3.87;;
8622;SDS011;4349;47.552;8.904;2023-08-30T06:00:27;4.50;;;4.30;;
8622;SDS011;4349;47.552;8.904;2023-08-30T06:02:54;4.30;;;4.10;;
8622;SDS011;4349;47.552;8.904;2023-08-30T06:05:21;4.10;;;3.80;;
8622;SDS011;4349;47.552;8.904;2023-08-30T06:07:49;4.53;;;4.27;;
8622;SDS011;4349;47.552;8.904;2023-08-30T06:10:16;4.30;;;4.10;;
8622;SDS011;4349;47.552;8.904;2023-08-30T06:12:44;4.63;;;4.43;;
8622;SDS011;4349;47.552;8.904;2023-08-30T06:15:11;5.30;;;5.00;;
8622;SDS011;4349;47.552;8.904;2023-08-30T06:17:40;5.20;;;4.90;;
8622;SDS011;4349;47.552;8.904;2023-08-30T06:20:08;4.87;;;4.67;;
8622;SDS011;4349;47.552;8.904;2023-08-30T06:22:35;5.60;;;5.10;;
8622;SDS011;4349;47.552;8.904;2023-08-30T06:25:03;5.23;;;4.93;;
8622;SDS011;4349;47.552;8.904;2023-08-30T06:27:33;5.07;;;4.77;;
8622;SDS011;4349;47.552;8.904;2023-08-30T06:30:00;4.60;;;4.40;;
8622;SDS011;4349;47.552;8.904;2023-08-30T06:32:29;4.57;;;4.30;;
8622;SDS011;4349;47.552;8.904;2023-08-30T06:34:58;4.70;;;4.40;;
8622;SDS011;4349;47.552;8.904;2023-08-30T06:37:26;4.47;;;4.03;;
8622;SDS011;4349;47.552;8.904;2023-08-30T06:39:54;4.37;;;3.97;;
8622;SDS011;4349;47.552;8.904;2023-08-30T06:42:22;4.37;;;4.17;;
8622;SDS011;4349;47.552;8.904;2023-08-30T06:44:50;3.83;;;3.70;;
8622;SDS011;4349;47.552;8.904;2023-08-30T06:47:18;4.50;;;4.30;;
8622;SDS011;4349;47.552;8.904;2023-08-30T06:49:45;4.53;;;4.23;;
8622;SDS011;4349;47.552;8.904;2023-08-30T06:52:14;4.40;;;4.20;;
8622;SDS011;4349;47.552;8.904;2023-08-30T06:54:42;4.20;;;4.00;;
8622;SDS011;4349;47.552;8.904;2023-08-30T06:57:09;4.03;;;3.77;;
8622;SDS011;4349;47.552;8.904;2023-08-30T06:59:36;4.27;;;4.07;;
8622;SDS011;4349;47.552;8.904;2023-08-30T07:02:04;3.53;;;3.43;;
8622;SDS011;4349;47.552;8.904;2023-08-30T07:04:31;4.40;;;4.20;;
8622;SDS011;4349;47.552;8.904;2023-08-30T07:06:59;4.43;;;4.23;;
8622;SDS011;4349;47.552;8.904;2023-08-30T07:09:30;4.50;;;4.20;;
8622;SDS011;4349;47.552;8.904;2023-08-30T07:11:59;4.57;;;4.37;;
8622;SDS011;4349;47.552;8.904;2023-08-30T07:14:27;3.47;;;3.30;;
8622;SDS011;4349;47.552;8.904;2023-08-30T07:16:54;3.77;;;3.63;;
8622;SDS011;4349;47.552;8.904;2023-08-30T07:19:22;4.00;;;3.80;;
8622;SDS011;4349;47.552;8.904;2023-08-30T07:21:49;3.83;;;3.67;;
8622;SDS011;4349;47.552;8.904;2023-08-30T07:24:17;3.73;;;3.53;;
8622;SDS011;4349;47.552;8.904;2023-08-30T07:26:45;3.90;;;3.70;;
8622;SDS011;4349;47.552;8.904;2023-08-30T07:29:13;4.23;;;3.93;;
8622;SDS011;4349;47.552;8.904;2023-08-30T07:31:41;3.83;;;3.70;;
8622;SDS011;4349;47.552;8.904;2023-08-30T07:34:08;3.43;;;3.33;;
8622;SDS011;4349;47.552;8.904;2023-08-30T07:36:36;3.80;;;3.60;;
8622;SDS011;4349;47.552;8.904;2023-08-30T07:39:13;3.80;;;3.60;;
8622;SDS011;4349;47.552;8.904;2023-08-30T07:41:40;3.20;;;3.10;;
8622;SDS011;4349;47.552;8.904;2023-08-30T07:44:09;3.60;;;3.50;;
8622;SDS011;4349;47.552;8.904;2023-08-30T07:46:36;3.23;;;3.13;;
8622;SDS011;4349;47.552;8.904;2023-08-30T07:49:04;3.63;;;3.50;;
8622;SDS011;4349;47.552;8.904;2023-08-30T07:51:31;4.20;;;4.00;;
8622;SDS011;4349;47.552;8.904;2023-08-30T07:53:59;3.83;;;3.67;;
8622;SDS011;4349;47.552;8.904;2023-08-30T07:56:28;4.97;;;4.67;;
8622;SDS011;4349;47.552;8.904;2023-08-30T07:58:56;7.40;;;6.90;;
8622;SDS011;4349;47.552;8.904;2023-08-30T08:01:25;7.50;;;6.90;;
8622;SDS011;4349;47.552;8.904;2023-08-30T08:03:52;7.93;;;7.23;;
8622;SDS011;4349;47.552;8.904;2023-08-30T08:06:32;7.57;;;7.07;;
8622;SDS011;4349;47.552;8.904;2023-08-30T08:09:02;6.83;;;6.37;;
8622;SDS011;4349;47.552;8.904;2023-08-30T08:11:30;7.80;;;7.10;;
8622;SDS011;4349;47.552;8.904;2023-08-30T08:13:57;7.10;;;6.60;;
8622;SDS011;4349;47.552;8.904;2023-08-30T08:16:27;7.10;;;6.60;;
8622;SDS011;4349;47.552;8.904;2023-08-30T08:18:55;7.03;;;6.40;;
8622;SDS011;4349;47.552;8.904;2023-08-30T08:21:25;8.20;;;7.50;;
8622;SDS011;4349;47.552;8.904;2023-08-30T08:23:53;9.07;;;8.30;;
8622;SDS011;4349;47.552;8.904;2023-08-30T08:26:20;7.83;;;7.33;;
8622;SDS011;4349;47.552;8.904;2023-08-30T08:28:47;7.70;;;7.20;;
8622;SDS011;4349;47.552;8.904;2023-08-30T08:31:17;6.80;;;6.40;;
8622;SDS011;4349;47.552;8.904;2023-08-30T08:33:46;6.57;;;6.13;;
8622;SDS011;4349;47.552;8.904;2023-08-30T08:36:13;6.20;;;5.80;;
8622;SDS011;4349;47.552;8.904;2023-08-30T08:38:41;6.00;;;5.60;;
8622;SDS011;4349;47.552;8.904;2023-08-30T08:41:09;6.60;;;6.20;;
8622;SDS011;4349;47.552;8.904;2023-08-30T08:43:38;6.47;;;6.00;;
8622;SDS011;4349;47.552;8.904;2023-08-30T08:46:06;5.83;;;5.53;;
8622;SDS011;4349;47.552;8.904;2023-08-30T08:48:37;6.13;;;5.70;;
8622;SDS011;4349;47.552;8.904;2023-08-30T08:51:08;5.53;;;5.23;;
8622;SDS011;4349;47.552;8.904;2023-08-30T08:53:36;4.87;;;4.57;;
8622;SDS011;4349;47.552;8.904;2023-08-30T08:56:04;4.77;;;4.37;;
8622;SDS011;4349;47.552;8.904;2023-08-30T08:58:35;5.57;;;5.13;;
8622;SDS011;4349;47.552;8.904;2023-08-30T09:01:03;4.67;;;4.47;;
8622;SDS011;4349;47.552;8.904;2023-08-30T09:03:32;4.60;;;4.40;;
8622;SDS011;4349;47.552;8.904;2023-08-30T09:06:01;3.93;;;3.63;;
8622;SDS011;4349;47.552;8.904;2023-08-30T09:08:31;3.63;;;3.33;;
8622;SDS011;4349;47.552;8.904;2023-08-30T09:10:58;3.40;;;3.30;;
8622;SDS011;4349;47.552;8.904;2023-08-30T09:13:25;3.47;;;3.30;;
8622;SDS011;4349;47.552;8.904;2023-08-30T09:15:53;3.10;;;3.00;;
8622;SDS011;4349;47.552;8.904;2023-08-30T09:18:20;3.50;;;3.30;;
8622;SDS011;4349;47.552;8.904;2023-08-30T09:20:53;3.80;;;3.60;;
8622;SDS011;4349;47.552;8.904;2023-08-30T09:23:21;3.40;;;3.30;;
8622;SDS011;4349;47.552;8.904;2023-08-30T09:25:55;3.40;;;3.30;;
8622;SDS011;4349;47.552;8.904;2023-08-30T09:28:22;3.70;;;3.60;;
8622;SDS011;4349;47.552;8.904;2023-08-30T09:30:50;3.90;;;3.60;;
8622;SDS011;4349;47.552;8.904;2023-08-30T09:33:20;4.70;;;4.50;;
8622;SDS011;4349;47.552;8.904;2023-08-30T09:35:47;4.13;;;3.93;;
8622;SDS011;4349;47.552;8.904;2023-08-30T09:38:17;4.00;;;3.90;;
8622;SDS011;4349;47.552;8.904;2023-08-30T09:40:45;5.07;;;4.10;;
8622;SDS011;4349;47.552;8.904;2023-08-30T09:43:17;4.30;;;4.10;;
8622;SDS011;4349;47.552;8.904;2023-08-30T09:45:45;4.43;;;4.17;;
8622;SDS011;4349;47.552;8.904;2023-08-30T09:48:13;3.47;;;3.37;;
8622;SDS011;4349;47.552;8.904;2023-08-30T09:50:41;3.80;;;3.50;;
8622;SDS011;4349;47.552;8.904;2023-08-30T09:53:09;3.43;;;3.33;;
8622;SDS011;4349;47.552;8.904;2023-08-30T09:55:37;3.07;;;2.90;;
8622;SDS011;4349;47.552;8.904;2023-08-30T09:58:05;3.07;;;2.97;;
8622;SDS011;4349;47.552;8.904;2023-08-30T10:00:34;3.57;;;3.47;;
8622;SDS011;4349;47.552;8.904;2023-08-30T10:03:02;3.67;;;3.57;;
8622;SDS011;4349;47.552;8.904;2023-08-30T10:05:33;3.77;;;3.57;;
8622;SDS011;4349;47.552;8.904;2023-08-30T10:08:00;3.43;;;3.33;;
8622;SDS011;4349;47.552;8.904;2023-08-30T10:10:30;4.40;;;4.20;;
8622;SDS011;4349;47.552;8.904;2023-08-30T10:12:58;4.50;;;4.30;;
8622;SDS011;4349;47.552;8.904;2023-08-30T10:15:38;4.10;;;4.00;;
8622;SDS011;4349;47.552;8.904;2023-08-30T10:18:08;4.00;;;3.87;;
8622;SDS011;4349;47.552;8.904;2023-08-30T10:20:36;4.20;;;4.00;;
8622;SDS011;4349;47.552;8.904;2023-08-30T10:23:04;3.70;;;3.60;;
8622;SDS011;4349;47.552;8.904;2023-08-30T10:25:32;4.53;;;3.80;;
8622;SDS011;4349;47.552;8.904;2023-08-30T10:28:00;3.80;;;3.70;;
8622;SDS011;4349;47.552;8.904;2023-08-30T10:30:28;3.13;;;3.03;;
8622;SDS011;4349;47.552;8.904;2023-08-30T10:32:57;4.03;;;3.93;;
8622;SDS011;4349;47.552;8.904;2023-08-30T10:35:25;4.40;;;4.10;;
8622;SDS011;4349;47.552;8.904;2023-08-30T10:37:53;4.07;;;3.87;;
8622;SDS011;4349;47.552;8.904;2023-08-30T10:40:21;4.43;;;4.23;;
8622;SDS011;4349;47.552;8.904;2023-08-30T10:42:58;3.90;;;3.80;;
8622;SDS011;4349;47.552;8.904;2023-08-30T10:45:25;4.23;;;4.03;;
8622;SDS011;4349;47.552;8.904;2023-08-30T10:47:58;3.83;;;3.63;;
8622;SDS011;4349;47.552;8.904;2023-08-30T10:50:29;4.83;;;4.53;;
8622;SDS011;4349;47.552;8.904;2023-08-30T10:52:57;4.60;;;4.40;;
8622;SDS011;4349;47.552;8.904;2023-08-30T10:55:25;4.43;;;4.10;;
8622;SDS011;4349;47.552;8.904;2023-08-30T10:57:59;3.77;;;3.57;;
8622;SDS011;4349;47.552;8.904;2023-08-30T11:00:27;4.23;;;3.93;;
8622;SDS011;4349;47.552;8.904;2023-08-30T11:02:55;3.87;;;3.57;;
8622;SDS011;4349;47.552;8.904;2023-08-30T11:05:24;4.07;;;3.77;;
8622;SDS011;4349;47.552;8.904;2023-08-30T11:07:52;4.37;;;4.17;;
8622;SDS011;4349;47.552;8.904;2023-08-30T11:10:20;4.23;;;3.97;;
8622;SDS011;4349;47.552;8.904;2023-08-30T11:12:48;3.23;;;3.13;;
8622;SDS011;4349;47.552;8.904;2023-08-30T11:15:16;3.87;;;3.60;;
8622;SDS011;4349;47.552;8.904;2023-08-30T11:17:44;3.93;;;3.83;;
8622;SDS011;4349;47.552;8.904;2023-08-30T11:20:13;3.50;;;3.30;;
8622;SDS011;4349;47.552;8.904;2023-08-30T11:22:44;4.07;;;3.83;;
8622;SDS011;4349;47.552;8.904;2023-08-30T11:25:14;3.40;;;3.30;;
8622;SDS011;4349;47.552;8.904;2023-08-30T11:27:43;3.10;;;3.00;;
8622;SDS011;4349;47.552;8.904;2023-08-30T11:30:10;3.03;;;2.93;;
8622;SDS011;4349;47.552;8.904;2023-08-30T11:32:39;2.90;;;2.70;;
8622;SDS011;4349;47.552;8.904;2023-08-30T11:35:07;3.27;;;3.17;;
8622;SDS011;4349;47.552;8.904;2023-08-30T11:37:34;3.37;;;3.17;;
8622;SDS011;4349;47.552;8.904;2023-08-30T11:40:04;3.10;;;2.93;;
8622;SDS011;4349;47.552;8.904;2023-08-30T11:42:32;2.53;;;2.43;;
8622;SDS011;4349;47.552;8.904;2023-08-30T11:45:00;3.20;;;3.10;;
8622;SDS011;4349;47.552;8.904;2023-08-30T11:47:28;2.90;;;2.80;;
8622;SDS011;4349;47.552;8.904;2023-08-30T11:49:56;2.50;;;2.40;;
8622;SDS011;4349;47.552;8.904;2023-08-30T11:52:24;3.30;;;3.20;;
8622;SDS011;4349;47.552;8.904;2023-08-30T11:54:52;3.00;;;2.80;;
8622;SDS011;4349;47.552;8.904;2023-08-30T11:57:21;2.77;;;2.53;;
8622;SDS011;4349;47.552;8.904;2023-08-30T11:59:49;2.77;;;2.60;;
8622;SDS011;4349;47.552;8.904;2023-08-30T12:02:17;2.70;;;2.60;;
8622;SDS011;4349;47.552;8.904;2023-08-30T12:04:46;2.87;;;2.77;;
8622;SDS011;4349;47.552;8.904;2023-08-30T12:07:21;2.57;;;2.47;;
8622;SDS011;4349;47.552;8.904;2023-08-30T12:09:49;2.67;;;2.50;;
8622;SDS011;4349;47.552;8.904;2023-08-30T12:12:16;2.50;;;2.40;;
8622;SDS011;4349;47.552;8.904;2023-08-30T12:14:45;2.77;;;2.67;;
8622;SDS011;4349;47.552;8.904;2023-08-30T12:17:12;3.10;;;3.00;;
8622;SDS011;4349;47.552;8.904;2023-08-30T12:19:40;2.17;;;2.17;;
8622;SDS011;4349;47.552;8.904;2023-08-30T12:22:07;2.93;;;2.77;;
8622;SDS011;4349;47.552;8.904;2023-08-30T12:24:41;2.50;;;2.40;;
8622;SDS011;4349;47.552;8.904;2023-08-30T12:27:09;2.07;;;1.97;;
8622;SDS011;4349;47.552;8.904;2023-08-30T12:29:37;2.43;;;2.33;;
8622;SDS011;4349;47.552;8.904;2023-08-30T12:32:06;2.50;;;2.17;;
8622;SDS011;4349;47.552;8.904;2023-08-30T12:34:33;1.93;;;1.93;;
8622;SDS011;4349;47.552;8.904;2023-08-30T12:37:01;2.20;;;2.10;;
8622;SDS011;4349;47.552;8.904;2023-08-30T12:39:31;1.73;;;1.73;;
8622;SDS011;4349;47.552;8.904;2023-08-30T12:41:58;2.23;;;2.13;;
8622;SDS011;4349;47.552;8.904;2023-08-30T12:44:26;2.27;;;2.17;;
8622;SDS011;4349;47.552;8.904;2023-08-30T12:46:53;2.00;;;1.90;;
8622;SDS011;4349;47.552;8.904;2023-08-30T12:49:22;2.17;;;2.07;;
8622;SDS011;4349;47.552;8.904;2023-08-30T12:51:49;1.93;;;1.93;;
8622;SDS011;4349;47.552;8.904;2023-08-30T12:54:17;2.80;;;2.17;;
8622;SDS011;4349;47.552;8.904;2023-08-30T12:56:44;2.10;;;2.00;;
8622;SDS011;4349;47.552;8.904;2023-08-30T12:59:12;1.90;;;1.90;;
8622;SDS011;4349;47.552;8.904;2023-08-30T13:01:39;2.00;;;2.00;;
8622;SDS011;4349;47.552;8.904;2023-08-30T13:04:07;1.93;;;1.90;;
8622;SDS011;4349;47.552;8.904;2023-08-30T13:06:36;2.10;;;1.93;;
8622;SDS011;4349;47.552;8.904;2023-08-30T13:09:04;2.60;;;2.50;;
8622;SDS011;4349;47.552;8.904;2023-08-30T13:11:32;2.00;;;1.90;;
8622;SDS011;4349;47.552;8.904;2023-08-30T13:13:59;2.10;;;2.00;;
8622;SDS011;4349;47.552;8.904;2023-08-30T13:16:27;1.90;;;1.80;;
8622;SDS011;4349;47.552;8.904;2023-08-30T13:18:54;2.13;;;1.93;;
8622;SDS011;4349;47.552;8.904;2023-08-30T13:21:22;2.00;;;1.90;;
8622;SDS011;4349;47.552;8.904;2023-08-30T13:24:06;2.23;;;2.13;;
8622;SDS011;4349;47.552;8.904;2023-08-30T13:26:33;1.97;;;1.97;;
8622;SDS011;4349;47.552;8.904;2023-08-30T13:29:01;2.03;;;2.03;;
8622;SDS011;4349;47.552;8.904;2023-08-30T13:31:29;1.90;;;1.80;;
8622;SDS011;4349;47.552;8.904;2023-08-30T13:33:57;1.93;;;1.83;;
8622;SDS011;4349;47.552;8.904;2023-08-30T13:36:25;1.80;;;1.70;;
8622;SDS011;4349;47.552;8.904;2023-08-30T13:38:54;1.80;;;1.70;;
8622;SDS011;4349;47.552;8.904;2023-08-30T13:41:24;1.80;;;1.70;;
8622;SDS011;4349;47.552;8.904;2023-08-30T13:43:51;1.80;;;1.70;;
8622;SDS011;4349;47.552;8.904;2023-08-30T13:46:19;1.70;;;1.60;;
8622;SDS011;4349;47.552;8.904;2023-08-30T13:48:46;1.83;;;1.73;;
8622;SDS011;4349;47.552;8.904;2023-08-30T13:51:20;1.80;;;1.70;;
8622;SDS011;4349;47.552;8.904;2023-08-30T13:53:48;2.07;;;1.97;;
8622;SDS011;4349;47.552;8.904;2023-08-30T13:56:15;1.70;;;1.70;;
8622;SDS011;4349;47.552;8.904;2023-08-30T13:58:44;1.80;;;1.70;;
8622;SDS011;4349;47.552;8.904;2023-08-30T14:01:11;2.00;;;1.80;;
8622;SDS011;4349;47.552;8.904;2023-08-30T14:03:39;2.30;;;2.10;;
8622;SDS011;4349;47.552;8.904;2023-08-30T14:06:06;1.83;;;1.73;;
8622;SDS011;4349;47.552;8.904;2023-08-30T14:08:34;1.80;;;1.80;;
8622;SDS011;4349;47.552;8.904;2023-08-30T14:11:01;2.03;;;2.03;;
8622;SDS011;4349;47.552;8.904;2023-08-30T14:13:30;2.00;;;2.00;;
8622;SDS011;4349;47.552;8.904;2023-08-30T14:16:00;2.10;;;2.10;;
8622;SDS011;4349;47.552;8.904;2023-08-30T14:18:29;2.00;;;1.90;;
8622;SDS011;4349;47.552;8.904;2023-08-30T14:20:57;2.00;;;1.90;;
8622;SDS011;4349;47.552;8.904;2023-08-30T14:23:24;2.00;;;1.90;;
8622;SDS011;4349;47.552;8.904;2023-08-30T14:25:56;2.08;;;1.98;;
8622;SDS011;4349;47.552;8.904;2023-08-30T14:28:23;2.22;;;2.13;;
8622;SDS011;4349;47.552;8.904;2023-08-30T14:30:51;2.00;;;2.00;;
8622;SDS011;4349;47.552;8.904;2023-08-30T14:33:20;2.30;;;2.20;;
8622;SDS011;4349;47.552;8.904;2023-08-30T14:35:47;5.53;;;2.25;;
8622;SDS011;4349;47.552;8.904;2023-08-30T14:38:15;2.20;;;2.20;;
8622;SDS011;4349;47.552;8.904;2023-08-30T14:40:42;2.45;;;2.35;;
8622;SDS011;4349;47.552;8.904;2023-08-30T14:43:10;2.10;;;2.10;;
8622;SDS011;4349;47.552;8.904;2023-08-30T14:45:38;2.60;;;2.47;;
8622;SDS011;4349;47.552;8.904;2023-08-30T14:48:06;2.28;;;2.17;;
8622;SDS011;4349;47.552;8.904;2023-08-30T14:50:36;2.50;;;2.30;;
8622;SDS011;4349;47.552;8.904;2023-08-30T14:53:04;2.08;;;2.00;;
8622;SDS011;4349;47.552;8.904;2023-08-30T14:55:32;2.05;;;2.05;;
8622;SDS011;4349;47.552;8.904;2023-08-30T14:57:59;2.20;;;2.20;;
8622;SDS011;4349;47.552;8.904;2023-08-30T15:00:27;2.17;;;2.08;;
8622;SDS011;4349;47.552;8.904;2023-08-30T15:02:54;1.90;;;1.90;;
8622;SDS011;4349;47.552;8.904;2023-08-30T15:05:22;3.13;;;2.20;;
8622;SDS011;4349;47.552;8.904;2023-08-30T15:07:51;3.00;;;2.22;;
8622;SDS011;4349;47.552;8.904;2023-08-30T15:10:18;2.83;;;2.33;;
8622;SDS011;4349;47.552;8.904;2023-08-30T15:12:46;2.67;;;2.47;;
8622;SDS011;4349;47.552;8.904;2023-08-30T15:15:13;2.42;;;2.25;;
8622;SDS011;4349;47.552;8.904;2023-08-30T15:17:41;2.95;;;2.85;;
8622;SDS011;4349;47.552;8.904;2023-08-30T15:20:09;2.40;;;2.20;;
8622;SDS011;4349;47.552;8.904;2023-08-30T15:22:36;2.20;;;2.00;;